createdAt,value
2022-11-22T00:00:44.459Z,100.00
2022-11-22T00:03:15.428Z,100.00
2022-11-22T00:05:46.424Z,100.00
2022-11-22T00:08:17.190Z,100.00
2022-11-22T00:10:50.028Z,100.00
2022-11-22T00:13:21.397Z,100.00
2022-11-22T00:16:02.897Z,100.00
2022-11-22T00:18:33.591Z,100.00
2022-11-22T00:21:09.379Z,100.00
2022-11-22T00:23:40.312Z,100.00
2022-11-22T00:26:13.663Z,100.00
2022-11-22T00:28:44.605Z,100.00
2022-11-22T00:31:15.852Z,100.00
2022-11-22T00:33:46.808Z,100.00
2022-11-22T00:36:18.806Z,100.00
2022-11-22T00:38:49.595Z,100.00
2022-11-22T00:41:20.572Z,100.00
2022-11-22T00:43:51.338Z,100.00
2022-11-22T00:46:22.042Z,100.00
2022-11-22T00:48:53.085Z,100.00
2022-11-22T00:51:23.795Z,100.00
2022-11-22T00:53:55.061Z,100.00
2022-11-22T00:56:26.028Z,100.00
2022-11-22T00:58:57.425Z,100.00
2022-11-22T01:01:28.276Z,100.00
2022-11-22T01:03:59.097Z,100.00
2022-11-22T01:06:30.307Z,100.00
2022-11-22T01:09:01.313Z,100.00
2022-11-22T01:11:32.062Z,100.00
2022-11-22T01:14:02.920Z,100.00
2022-11-22T01:16:33.645Z,100.00
2022-11-22T01:19:04.429Z,100.00
2022-11-22T01:21:35.267Z,100.00
2022-11-22T01:24:06.876Z,100.00
2022-11-22T01:26:38.238Z,100.00
2022-11-22T01:29:09.006Z,100.00
2022-11-22T01:31:39.868Z,100.00
2022-11-22T01:34:10.612Z,100.00
2022-11-22T01:36:41.679Z,100.00
2022-11-22T01:39:12.725Z,100.00
2022-11-22T01:41:43.617Z,100.00
2022-11-22T01:44:26.833Z,100.00
2022-11-22T01:47:03.203Z,100.00
2022-11-22T01:49:34.523Z,100.00
2022-11-22T01:52:10.252Z,100.00
2022-11-22T01:54:43.918Z,100.00
2022-11-22T01:57:18.219Z,100.00
2022-11-22T01:59:56.047Z,100.00
2022-11-22T02:02:27.407Z,100.00
2022-11-22T02:04:59.782Z,100.00
2022-11-22T02:07:39.390Z,100.00
2022-11-22T02:10:11.234Z,100.00
2022-11-22T02:12:42.833Z,100.00
2022-11-22T02:15:14.283Z,100.00
2022-11-22T02:17:45.477Z,100.00
2022-11-22T02:20:18.604Z,100.00
2022-11-22T02:23:06.074Z,100.00
2022-11-22T02:25:43.212Z,100.00
2022-11-22T02:28:17.541Z,100.00
2022-11-22T02:30:48.292Z,100.00
2022-11-22T02:33:19.298Z,100.00
2022-11-22T02:35:50.394Z,100.00
2022-11-22T02:38:29.386Z,100.00
2022-11-22T02:41:11.677Z,100.00
2022-11-22T02:43:44.714Z,100.00
2022-11-22T02:46:23.284Z,100.00
2022-11-22T02:48:54.256Z,100.00
2022-11-22T02:51:25.733Z,100.00
2022-11-22T02:53:58.309Z,100.00
2022-11-22T02:56:29.217Z,100.00
2022-11-22T02:59:00.258Z,100.00
2022-11-22T03:01:32.086Z,100.00
2022-11-22T03:04:03.066Z,100.00
2022-11-22T03:06:33.871Z,100.00
2022-11-22T03:09:05.184Z,100.00
2022-11-22T03:11:36.197Z,100.00
2022-11-22T03:14:06.923Z,100.00
2022-11-22T03:16:37.697Z,100.00
2022-11-22T03:19:08.722Z,100.00
2022-11-22T03:21:40.874Z,100.00
2022-11-22T03:24:11.227Z,100.00
2022-11-22T03:26:42.047Z,100.00
2022-11-22T03:29:13.400Z,100.00
2022-11-22T03:31:44.405Z,100.00
2022-11-22T03:34:17.719Z,100.00
2022-11-22T03:36:48.665Z,100.00
2022-11-22T03:39:19.792Z,100.00
2022-11-22T03:41:50.761Z,100.00
2022-11-22T03:44:21.898Z,100.00
2022-11-22T03:46:55.052Z,100.00
2022-11-22T03:49:26.002Z,100.00
2022-11-22T03:51:56.941Z,100.00
2022-11-22T03:54:28.135Z,100.00
2022-11-22T03:56:59.117Z,100.00
2022-11-22T03:59:30.593Z,100.00
2022-11-22T04:02:01.125Z,100.00
2022-11-22T04:04:32.167Z,100.00
2022-11-22T04:07:02.925Z,100.00
2022-11-22T04:09:34.290Z,100.00
2022-11-22T04:12:08.336Z,100.00
2022-11-22T04:15:00.121Z,100.00
2022-11-22T04:17:49.459Z,100.00
2022-11-22T04:20:48.028Z,100.00
2022-11-22T04:23:21.417Z,100.00
2022-11-22T04:25:56.447Z,100.00
2022-11-22T04:28:46.977Z,100.00
2022-11-22T04:31:36.740Z,100.00
2022-11-22T04:34:07.484Z,100.00
2022-11-22T04:36:38.847Z,100.00
2022-11-22T04:39:09.586Z,100.00
2022-11-22T04:41:40.651Z,100.00
2022-11-22T04:44:30.023Z,100.00
2022-11-22T04:47:00.806Z,100.00
2022-11-22T04:49:32.033Z,100.00
2022-11-22T04:52:21.504Z,100.00
2022-11-22T04:54:52.482Z,100.00
2022-11-22T04:57:23.317Z,100.00
2022-11-22T04:59:54.534Z,100.00
2022-11-22T05:02:25.564Z,100.00
2022-11-22T05:04:56.547Z,100.00
2022-11-22T05:07:30.344Z,100.00
2022-11-22T05:10:01.606Z,100.00
2022-11-22T05:12:33.368Z,100.00
2022-11-22T05:15:04.447Z,100.00
2022-11-22T05:17:35.188Z,100.00
2022-11-22T05:20:10.629Z,100.00
2022-11-22T05:22:59.887Z,100.00
2022-11-22T05:25:31.222Z,100.00
2022-11-22T05:28:01.999Z,100.00
2022-11-22T05:30:34.366Z,100.00
2022-11-22T05:33:05.290Z,100.00
2022-11-22T05:35:37.692Z,100.00
2022-11-22T05:38:08.774Z,100.00
2022-11-22T05:40:39.552Z,100.00
2022-11-22T05:43:10.407Z,100.00
2022-11-22T05:45:41.533Z,100.00
2022-11-22T05:48:12.335Z,100.00
2022-11-22T05:50:43.128Z,100.00
2022-11-22T05:53:13.957Z,100.00
2022-11-22T05:55:44.755Z,100.00
2022-11-22T05:58:15.690Z,100.00
2022-11-22T06:00:46.946Z,100.00
2022-11-22T06:03:17.705Z,100.00
2022-11-22T06:05:54.256Z,100.00
2022-11-22T06:08:25.440Z,100.00
2022-11-22T06:10:56.425Z,100.00
2022-11-22T06:13:27.855Z,100.00
2022-11-22T06:16:02.230Z,100.00
2022-11-22T06:18:33.281Z,100.00
2022-11-22T06:21:08.254Z,100.00
2022-11-22T06:23:39.008Z,100.00
2022-11-22T06:26:21.322Z,100.00
2022-11-22T06:28:52.753Z,100.00
2022-11-22T06:31:26.122Z,100.00
2022-11-22T06:34:01.824Z,100.00
2022-11-22T06:36:34.718Z,100.00
2022-11-22T06:39:05.563Z,100.00
2022-11-22T06:41:38.305Z,100.00
2022-11-22T06:44:11.193Z,100.00
2022-11-22T06:46:42.448Z,100.00
2022-11-22T06:49:13.347Z,100.00
2022-11-22T06:51:44.321Z,100.00
2022-11-22T06:54:15.341Z,100.00
2022-11-22T06:56:46.177Z,100.00
2022-11-22T06:59:17.135Z,100.00
2022-11-22T07:01:48.050Z,100.00
2022-11-22T07:04:18.998Z,100.00
2022-11-22T07:06:50.082Z,100.00
2022-11-22T07:09:20.833Z,100.00
2022-11-22T07:11:51.526Z,100.00
2022-11-22T07:14:22.578Z,100.00
2022-11-22T07:16:53.518Z,100.00
2022-11-22T07:19:24.538Z,100.00
2022-11-22T07:21:55.283Z,100.00
2022-11-22T07:24:26.021Z,100.00
2022-11-22T07:26:56.674Z,100.00
2022-11-22T07:29:27.565Z,100.00
2022-11-22T07:31:58.740Z,100.00
2022-11-22T07:34:29.464Z,100.00
2022-11-22T07:37:04.792Z,100.00
2022-11-22T07:39:38.493Z,100.00
2022-11-22T07:42:09.441Z,100.00
2022-11-22T07:44:40.751Z,100.00
2022-11-22T07:47:11.628Z,100.00
2022-11-22T07:49:42.271Z,100.00
2022-11-22T07:52:13.102Z,100.00
2022-11-22T07:54:43.955Z,100.00
2022-11-22T07:57:14.808Z,100.00
2022-11-22T07:59:47.284Z,100.00
2022-11-22T08:02:17.972Z,100.00
2022-11-22T08:04:48.826Z,100.00
2022-11-22T08:07:19.939Z,100.00
2022-11-22T08:09:50.805Z,100.00
2022-11-22T08:12:22.630Z,100.00
2022-11-22T08:14:53.304Z,100.00
2022-11-22T08:17:24.180Z,100.00
2022-11-22T08:19:55.081Z,100.00
2022-11-22T08:22:25.835Z,100.00
2022-11-22T08:24:56.697Z,100.00
2022-11-22T08:27:27.789Z,100.00
2022-11-22T08:29:58.683Z,100.00
2022-11-22T08:32:30.274Z,100.00
2022-11-22T08:35:01.382Z,100.00
2022-11-22T08:37:32.487Z,100.00
2022-11-22T08:40:03.356Z,100.00
2022-11-22T08:42:34.514Z,100.00
2022-11-22T08:45:05.305Z,100.00
2022-11-22T08:47:36.113Z,100.00
2022-11-22T08:50:08.137Z,100.00
2022-11-22T08:52:38.883Z,100.00
2022-11-22T08:55:10.397Z,100.00
2022-11-22T08:57:41.036Z,100.00
2022-11-22T09:00:12.851Z,100.00
2022-11-22T09:02:42.941Z,100.00
2022-11-22T09:05:13.882Z,100.00
2022-11-22T09:10:35.956Z,100.00
2022-11-22T09:13:06.667Z,100.00
2022-11-22T09:15:37.326Z,100.00
2022-11-22T09:18:08.151Z,100.00
2022-11-22T09:20:38.812Z,100.00
2022-11-22T09:23:09.644Z,100.00
2022-11-22T09:25:40.708Z,100.00
2022-11-22T09:28:14.869Z,100.00
2022-11-22T09:30:45.568Z,100.00
2022-11-22T09:33:16.245Z,100.00
2022-11-22T09:35:47.101Z,100.00
2022-11-22T09:38:17.918Z,100.00
2022-11-22T09:40:49.489Z,100.00
2022-11-22T09:43:33.147Z,100.00
2022-11-22T09:46:25.102Z,100.00
2022-11-22T09:49:13.360Z,100.00
2022-11-22T09:51:51.306Z,100.00
2022-11-22T09:54:29.276Z,100.00
2022-11-22T09:57:02.673Z,100.00
2022-11-22T09:59:38.660Z,100.00
2022-11-22T10:02:43.622Z,100.00
2022-11-22T10:05:28.355Z,100.00
2022-11-22T10:08:08.724Z,100.00
2022-11-22T10:10:44.999Z,100.00
2022-11-22T10:13:24.996Z,100.00
2022-11-22T10:15:58.730Z,100.00
2022-11-22T10:19:03.148Z,100.00
2022-11-22T10:21:34.222Z,100.00
2022-11-22T10:24:05.791Z,100.00
2022-11-22T10:26:37.227Z,100.00
2022-11-22T10:29:29.747Z,100.00
2022-11-22T10:32:19.074Z,100.00
2022-11-22T10:34:58.690Z,100.00
2022-11-22T10:37:36.987Z,100.00
2022-11-22T10:40:35.505Z,100.00
2022-11-22T10:43:27.340Z,100.00
2022-11-22T10:46:06.373Z,100.00
2022-11-22T10:49:18.756Z,100.00
2022-11-22T10:51:48.836Z,100.00
2022-11-22T10:54:48.469Z,100.00
2022-11-22T10:57:28.213Z,100.00
2022-11-22T11:00:24.162Z,100.00
2022-11-22T11:03:00.764Z,100.00
2022-11-22T11:12:19.661Z,100.00
2022-11-22T11:15:04.564Z,100.00
2022-11-22T11:17:40.424Z,100.00
2022-11-22T11:20:28.952Z,100.00
2022-11-22T11:23:14.364Z,100.00
2022-11-22T11:25:47.831Z,100.00
2022-11-22T11:28:29.643Z,100.00
2022-11-22T11:31:09.718Z,100.00
2022-11-22T11:33:42.675Z,100.00
2022-11-22T11:36:23.754Z,100.00
2022-11-22T11:38:59.635Z,100.00
2022-11-22T11:41:36.300Z,100.00
2022-11-22T11:44:28.481Z,100.00
2022-11-22T11:47:00.798Z,100.00
2022-11-22T11:49:36.154Z,100.00
2022-11-22T11:52:09.642Z,100.00
2022-11-22T11:54:44.573Z,100.00
2022-11-22T11:57:21.698Z,100.00
2022-11-22T11:59:53.279Z,100.00
2022-11-22T12:02:26.975Z,100.00
2022-11-22T12:05:06.389Z,100.00
2022-11-22T12:07:37.336Z,100.00
2022-11-22T12:10:42.880Z,100.00
2022-11-22T12:13:22.505Z,100.00
2022-11-22T12:15:57.355Z,100.00
2022-11-22T12:18:40.696Z,100.00
2022-11-22T12:21:35.626Z,100.00
2022-11-22T12:24:57.356Z,100.00
2022-11-22T12:27:27.900Z,100.00
2022-11-22T12:30:00.632Z,100.00
2022-11-22T12:32:43.789Z,100.00
2022-11-22T12:35:16.696Z,100.00
2022-11-22T12:38:19.431Z,100.00
2022-11-22T12:40:53.354Z,100.00
2022-11-22T12:43:23.968Z,100.00
2022-11-22T12:46:00.053Z,100.00
2022-11-22T12:48:36.192Z,100.00
2022-11-22T12:51:18.092Z,100.00
2022-11-22T12:53:50.814Z,100.00
2022-11-22T12:56:31.465Z,100.00
2022-11-22T12:59:08.830Z,100.00
2022-11-22T13:02:05.383Z,100.00
2022-11-22T13:05:00.780Z,100.00
2022-11-22T13:07:39.855Z,100.00
2022-11-22T13:10:41.305Z,100.00
2022-11-22T13:13:39.455Z,100.00
2022-11-22T13:16:12.778Z,100.00
2022-11-22T13:19:12.687Z,100.00
2022-11-22T13:22:20.569Z,100.00
2022-11-22T13:25:12.635Z,100.00
2022-11-22T13:27:49.982Z,100.00
2022-11-22T13:30:28.917Z,100.00
2022-11-22T13:33:02.274Z,100.00
2022-11-22T13:35:38.614Z,100.00
2022-11-22T13:38:15.222Z,100.00
2022-11-22T13:40:47.329Z,100.00
2022-11-22T13:43:22.384Z,100.00
2022-11-22T13:46:03.702Z,100.00
2022-11-22T13:48:43.611Z,100.00
2022-11-22T13:51:21.642Z,100.00
2022-11-22T13:53:54.099Z,100.00
2022-11-22T13:56:25.102Z,100.00
2022-11-22T13:59:20.479Z,100.00
2022-11-22T14:01:51.138Z,100.00
2022-11-22T14:04:32.987Z,100.00
2022-11-22T14:07:13.361Z,100.00
2022-11-22T14:09:58.102Z,100.00
2022-11-22T14:12:52.543Z,100.00
2022-11-22T14:15:50.671Z,100.00
2022-11-22T14:18:39.669Z,100.00
2022-11-22T14:21:28.910Z,100.00
2022-11-22T14:24:12.002Z,100.00
2022-11-22T14:26:59.337Z,100.00
2022-11-22T14:29:53.565Z,100.00
2022-11-22T14:32:27.447Z,100.00
2022-11-22T14:35:07.367Z,100.00
2022-11-22T14:37:58.458Z,100.00
2022-11-22T14:40:42.807Z,100.00
2022-11-22T14:43:20.869Z,100.00
2022-11-22T14:45:57.967Z,100.00
2022-11-22T14:48:34.346Z,100.00
2022-11-22T14:51:17.231Z,100.00
2022-11-22T14:54:06.390Z,100.00
2022-11-22T14:56:37.855Z,100.00
2022-11-22T14:59:30.382Z,100.00
2022-11-22T15:02:51.677Z,100.00
2022-11-22T15:09:22.560Z,100.00
2022-11-22T15:09:53.383Z,100.00
2022-11-22T15:12:13.101Z,100.00
2022-11-22T15:58:17.351Z,100.00
2022-11-22T16:00:48.356Z,100.00
2022-11-22T16:03:27.923Z,100.00
2022-11-22T16:06:11.856Z,100.00
2022-11-22T16:08:50.832Z,100.00
2022-11-22T16:11:34.680Z,100.00
2022-11-22T16:14:06.202Z,100.00
2022-11-22T16:16:37.034Z,100.00
2022-11-22T16:19:24.469Z,100.00
2022-11-22T16:22:02.415Z,100.00
2022-11-22T16:24:34.216Z,100.00
2022-11-22T16:27:13.928Z,100.00
2022-11-22T16:29:53.244Z,100.00
2022-11-22T16:32:24.051Z,100.00
2022-11-22T16:35:08.512Z,100.00
2022-11-22T16:37:48.231Z,100.00
2022-11-22T16:40:19.583Z,100.00
2022-11-22T16:42:50.412Z,100.00
2022-11-22T16:45:23.481Z,100.00
2022-11-22T16:48:16.619Z,100.00
2022-11-22T16:50:47.654Z,100.00
2022-11-22T16:53:18.554Z,100.00
2022-11-22T16:55:49.459Z,100.00
2022-11-22T16:58:25.142Z,100.00
2022-11-22T17:00:58.386Z,100.00
2022-11-22T17:03:35.144Z,100.00
2022-11-22T17:06:05.891Z,100.00
2022-11-22T17:08:36.746Z,100.00
2022-11-22T17:11:07.725Z,100.00
2022-11-22T17:13:38.582Z,100.00
2022-11-22T17:16:10.321Z,100.00
2022-11-22T17:18:41.908Z,100.00
2022-11-22T17:21:37.611Z,100.00
2022-11-22T17:24:18.556Z,100.00
2022-11-22T17:26:49.369Z,100.00
2022-11-22T17:29:48.903Z,100.00
2022-11-22T17:32:17.219Z,100.00
2022-11-22T17:34:48.056Z,100.00
2022-11-22T17:37:18.946Z,100.00
2022-11-22T17:39:53.446Z,100.00
2022-11-22T17:42:25.576Z,100.00
2022-11-22T17:44:55.831Z,100.00
2022-11-22T17:47:26.500Z,100.00
2022-11-22T17:49:57.702Z,100.00
2022-11-22T17:52:28.576Z,100.00
2022-11-22T17:55:04.713Z,100.00
2022-11-22T17:57:37.730Z,100.00
2022-11-22T18:00:10.256Z,100.00
2022-11-22T18:02:41.105Z,100.00
2022-11-22T18:05:12.254Z,100.00
2022-11-22T18:07:43.211Z,100.00
2022-11-22T18:10:13.971Z,100.00
2022-11-22T18:12:58.674Z,100.00
2022-11-22T18:15:35.491Z,100.00
2022-11-22T18:18:06.266Z,100.00
2022-11-22T18:20:38.388Z,100.00
2022-11-22T18:23:08.494Z,100.00
2022-11-22T18:25:39.527Z,100.00
2022-11-22T18:28:10.318Z,100.00
2022-11-22T18:30:43.123Z,100.00
2022-11-22T18:33:14.575Z,100.00
2022-11-22T18:35:55.933Z,100.00
2022-11-22T18:38:27.195Z,100.00
2022-11-22T18:41:02.199Z,100.00
2022-11-22T18:43:33.018Z,100.00
2022-11-22T18:46:04.765Z,100.00
2022-11-22T18:48:36.037Z,100.00
2022-11-22T18:51:11.951Z,100.00
2022-11-22T18:53:43.464Z,100.00
2022-11-22T18:56:18.435Z,100.00
2022-11-22T18:58:50.485Z,100.00
2022-11-22T19:01:21.637Z,100.00
2022-11-22T19:03:52.577Z,100.00
2022-11-22T19:06:23.449Z,100.00
2022-11-22T19:08:54.620Z,100.00
2022-11-22T19:11:25.594Z,100.00
2022-11-22T19:13:56.274Z,100.00
2022-11-22T19:16:30.898Z,100.00
2022-11-22T19:19:01.879Z,100.00
2022-11-22T19:21:33.079Z,100.00
2022-11-22T19:24:04.293Z,100.00
2022-11-22T19:26:35.176Z,100.00
2022-11-22T19:29:06.480Z,100.00
2022-11-22T19:31:38.291Z,100.00
2022-11-22T19:34:09.206Z,100.00
2022-11-22T19:36:41.992Z,100.00
2022-11-22T19:39:14.760Z,100.00
2022-11-22T19:41:46.765Z,100.00
2022-11-22T19:44:17.658Z,100.00
2022-11-22T19:46:48.792Z,100.00
2022-11-22T19:49:19.444Z,100.00
2022-11-22T19:51:50.187Z,100.00
2022-11-22T19:54:21.037Z,100.00
2022-11-22T19:56:51.750Z,100.00
2022-11-22T19:59:22.536Z,100.00
2022-11-22T20:01:53.231Z,100.00
2022-11-22T20:04:24.374Z,100.00
2022-11-22T20:06:55.107Z,100.00
2022-11-22T20:09:26.260Z,100.00
2022-11-22T20:11:57.497Z,100.00
2022-11-22T20:14:28.373Z,100.00
2022-11-22T20:16:59.332Z,100.00
2022-11-22T20:19:34.054Z,100.00
2022-11-22T20:22:05.396Z,100.00
2022-11-22T20:24:36.324Z,100.00
2022-11-22T20:27:07.257Z,100.00
2022-11-22T20:29:38.468Z,100.00
2022-11-22T20:32:09.126Z,100.00
2022-11-22T20:34:39.800Z,100.00
2022-11-22T20:37:10.608Z,100.00
2022-11-22T20:39:41.824Z,100.00
2022-11-22T20:42:33.480Z,100.00
2022-11-22T20:45:09.855Z,100.00
2022-11-22T20:47:40.609Z,100.00
2022-11-22T20:50:11.918Z,100.00
2022-11-22T20:52:42.942Z,100.00
2022-11-22T20:55:14.651Z,100.00
2022-11-22T20:57:45.377Z,100.00
2022-11-22T21:00:17.068Z,100.00
2022-11-22T21:02:47.958Z,100.00
2022-11-22T21:05:18.659Z,100.00
2022-11-22T21:07:49.712Z,100.00
2022-11-22T21:10:20.514Z,100.00
2022-11-22T21:12:51.247Z,100.00
2022-11-22T21:15:22.428Z,100.00
2022-11-22T21:18:22.961Z,100.00
2022-11-22T21:20:44.673Z,100.00
2022-11-22T21:23:15.862Z,100.00
2022-11-22T21:25:46.673Z,100.00
2022-11-22T21:28:17.822Z,100.00
2022-11-22T21:30:48.758Z,100.00
2022-11-22T21:33:19.583Z,100.00
2022-11-22T21:35:50.701Z,100.00
2022-11-22T21:38:28.222Z,100.00
2022-11-22T21:41:24.294Z,100.00
2022-11-22T21:43:57.741Z,100.00
2022-11-22T21:46:28.487Z,100.00
2022-11-22T21:48:59.389Z,100.00
2022-11-22T21:51:30.454Z,100.00
2022-11-22T21:54:02.839Z,100.00
2022-11-22T21:56:33.740Z,100.00
2022-11-22T21:59:04.755Z,100.00
2022-11-22T22:01:35.943Z,100.00
2022-11-22T22:04:07.311Z,100.00
2022-11-22T22:06:42.308Z,100.00
2022-11-22T22:09:15.757Z,100.00
2022-11-22T22:11:49.180Z,100.00
2022-11-22T22:14:20.302Z,100.00
2022-11-22T22:16:51.156Z,100.00
2022-11-22T22:19:22.250Z,100.00
2022-11-22T22:21:53.210Z,100.00
2022-11-22T22:24:24.138Z,100.00
2022-11-22T22:26:55.127Z,100.00
2022-11-22T22:29:26.147Z,100.00
2022-11-22T22:31:56.993Z,92.40
2022-11-22T22:34:27.935Z,93.19
2022-11-22T22:37:02.141Z,93.33
2022-11-22T22:39:33.434Z,91.80
2022-11-22T22:42:04.817Z,91.79
2022-11-22T22:44:35.666Z,100.00
2022-11-22T22:47:06.562Z,100.00
2022-11-22T22:49:37.662Z,100.00
2022-11-22T22:52:08.617Z,93.18
2022-11-22T22:54:39.745Z,100.00
2022-11-22T22:57:10.768Z,91.82
2022-11-22T22:59:41.616Z,94.76
2022-11-22T23:02:12.669Z,100.00
2022-11-22T23:04:43.571Z,89.23
2022-11-22T23:07:14.280Z,89.04
2022-11-22T23:09:45.490Z,79.71
2022-11-22T23:12:16.261Z,77.40
2022-11-22T23:14:46.941Z,77.96
2022-11-22T23:17:17.640Z,80.17
2022-11-22T23:19:48.412Z,78.87
2022-11-22T23:22:23.299Z,73.32
2022-11-22T23:24:56.638Z,84.26
2022-11-22T23:27:27.451Z,81.95
2022-11-22T23:29:58.708Z,92.82
2022-11-22T23:32:32.925Z,97.31
2022-11-22T23:35:03.839Z,100.00
2022-11-22T23:37:34.683Z,100.00
2022-11-22T23:40:05.441Z,100.00
2022-11-22T23:42:36.584Z,100.00
2022-11-22T23:45:07.568Z,100.00
2022-11-22T23:47:38.712Z,93.77
2022-11-22T23:50:10.405Z,90.94
2022-11-22T23:52:41.276Z,94.00
2022-11-22T23:55:12.052Z,94.59
2022-11-22T23:57:42.793Z,90.50
